Terminal Aerodrome Forecast
Issued by NWS

Home | Current Version | Previous Version | Text Only | Print | Product List | Glossary Off
Versions: 1 2 3 4 5 6 7 8 9 10 11 12 13 14 15

000
FTUS43 KGRB 212329
TAFCWA
TAF
KCWA 212329Z 2200/2224 27006KT P6SM SCT080
     FM220200 VRB03KT P6SM SKC
     FM220800 VRB03KT 4SM BR SKC
      TEMPO 2208/2212 1 1/2SM BR SCT002
     FM221400 20009KT P6SM SCT030
     FM221800 20013G19KT P6SM SCT045
      AMD LTD TO CLD VIS AND WIND 2203/2211=

USA.gov is the U.S. government's official web portal to all federal, state and local government web resources and services.